CFG785 LXGB-LPMA
Flight info
| Callsign | CFG785 |
|---|---|
| Flight time | N/A |
| Altitude | 34000 |
| Route | LINTO UN10 TNR UN726 BAMBA N726 ORTOP DCT NARTA/N0454F330 DCT RULET DCT RAKUN |
| Aircraft | A320/M-SDE3FGHIRWY/LB1 |
Departure
| Time | N/A |
|---|---|
| Airport | Gibraltar Airport (LXGB) |
Arrival
| Time | 2026-05-05 20:16 |
|---|---|
| Airport | Cristiano Ronaldo International Airport (LPMA) |
| Time | Latitude | Longitude | Altitude | Speed | Heading |
|---|---|---|---|---|---|
| 2026-05-05 18:50 | 36.07122 | -10.72635 | 34179 ft | 412 kts | 268° |
| 2026-05-05 18:51 | 36.07126 | -10.79696 | 34122 ft | 411 kts | 268° |
| 2026-05-05 18:51 | 36.07118 | -10.86754 | 34125 ft | 410 kts | 268° |
| 2026-05-05 18:52 | 36.07099 | -10.93812 | 34125 ft | 410 kts | 268° |
| 2026-05-05 18:52 | 36.07083 | -11.00824 | 34127 ft | 411 kts | 268° |
| 2026-05-05 18:53 | 36.07063 | -11.07893 | 34114 ft | 411 kts | 268° |
| 2026-05-05 18:53 | 36.07028 | -11.14961 | 34126 ft | 411 kts | 268° |
| 2026-05-05 18:54 | 36.07005 | -11.22030 | 34132 ft | 411 kts | 268° |
| 2026-05-05 18:54 | 36.06983 | -11.29097 | 34131 ft | 411 kts | 268° |
| 2026-05-05 18:55 | 36.06942 | -11.36165 | 34130 ft | 411 kts | 268° |
| 2026-05-05 18:55 | 36.06887 | -11.43230 | 34126 ft | 411 kts | 268° |
| 2026-05-05 18:56 | 36.06829 | -11.50303 | 34124 ft | 411 kts | 268° |
| 2026-05-05 18:56 | 36.06785 | -11.57372 | 34124 ft | 412 kts | 268° |
| 2026-05-05 18:57 | 36.06752 | -11.62583 | 34127 ft | 412 kts | 268° |
| 2026-05-05 18:57 | 36.06690 | -11.69657 | 34117 ft | 412 kts | 268° |
| 2026-05-05 18:58 | 36.06628 | -11.76699 | 34131 ft | 412 kts | 268° |
| 2026-05-05 18:58 | 36.06560 | -11.83786 | 34122 ft | 413 kts | 268° |
| 2026-05-05 18:59 | 36.06489 | -11.90878 | 34131 ft | 413 kts | 268° |
| 2026-05-05 18:59 | 36.06412 | -11.97974 | 34141 ft | 412 kts | 268° |
| 2026-05-05 19:00 | 36.06345 | -12.03860 | 34140 ft | 412 kts | 268° |
| 2026-05-05 19:00 | 36.06262 | -12.10937 | 34131 ft | 412 kts | 268° |
| 2026-05-05 19:01 | 36.06164 | -12.19165 | 34131 ft | 412 kts | 268° |
| 2026-05-05 19:01 | 36.06074 | -12.26248 | 34139 ft | 412 kts | 268° |
| 2026-05-05 19:02 | 36.05990 | -12.32183 | 34139 ft | 412 kts | 268° |
| 2026-05-05 19:02 | 36.05890 | -12.39269 | 34142 ft | 412 kts | 268° |
| 2026-05-05 19:03 | 36.05790 | -12.46310 | 34142 ft | 413 kts | 268° |
| 2026-05-05 19:03 | 36.05191 | -12.53335 | 34132 ft | 412 kts | 254° |
| 2026-05-05 19:04 | 36.02672 | -12.59682 | 34134 ft | 416 kts | 235° |
| 2026-05-05 19:04 | 35.98812 | -12.65029 | 34137 ft | 418 kts | 230° |
| 2026-05-05 19:05 | 35.94881 | -12.70320 | 34145 ft | 418 kts | 230° |
| 2026-05-05 19:05 | 35.90947 | -12.75613 | 34141 ft | 418 kts | 230° |
| 2026-05-05 19:06 | 35.87014 | -12.80899 | 34140 ft | 419 kts | 230° |
| 2026-05-05 19:06 | 35.83077 | -12.86193 | 34155 ft | 419 kts | 230° |
| 2026-05-05 19:07 | 35.79163 | -12.91438 | 34140 ft | 419 kts | 230° |
| 2026-05-05 19:07 | 35.75217 | -12.96716 | 34141 ft | 419 kts | 230° |
| 2026-05-05 19:08 | 35.71269 | -13.01993 | 34144 ft | 419 kts | 230° |
| 2026-05-05 19:08 | 35.67313 | -13.07267 | 34148 ft | 419 kts | 230° |
| 2026-05-05 19:09 | 35.63352 | -13.12534 | 34154 ft | 419 kts | 230° |
| 2026-05-05 19:09 | 35.59392 | -13.17793 | 34153 ft | 419 kts | 230° |
| 2026-05-05 19:10 | 35.55430 | -13.23052 | 34160 ft | 419 kts | 230° |
| 2026-05-05 19:10 | 35.51497 | -13.28274 | 34163 ft | 419 kts | 230° |
| 2026-05-05 19:11 | 35.47508 | -13.33550 | 34093 ft | 419 kts | 230° |
| 2026-05-05 19:11 | 35.45554 | -13.36136 | 33950 ft | 419 kts | 230° |
| 2026-05-05 19:11 | 35.43570 | -13.38757 | 33811 ft | 419 kts | 229° |
| 2026-05-05 19:12 | 35.41580 | -13.41376 | 33672 ft | 420 kts | 229° |
| 2026-05-05 19:12 | 35.39588 | -13.43996 | 33535 ft | 420 kts | 229° |
| 2026-05-05 19:12 | 35.37598 | -13.46617 | 33405 ft | 420 kts | 229° |
| 2026-05-05 19:12 | 35.35611 | -13.49237 | 33273 ft | 420 kts | 229° |
| 2026-05-05 19:13 | 35.33624 | -13.51858 | 33138 ft | 420 kts | 229° |
| 2026-05-05 19:13 | 35.31633 | -13.54478 | 33005 ft | 420 kts | 229° |
| 2026-05-05 19:13 | 35.29643 | -13.57091 | 32865 ft | 420 kts | 229° |
| 2026-05-05 19:13 | 35.27645 | -13.59711 | 32743 ft | 420 kts | 229° |
| 2026-05-05 19:14 | 35.25650 | -13.62325 | 32612 ft | 421 kts | 229° |
| 2026-05-05 19:14 | 35.23651 | -13.64946 | 32483 ft | 421 kts | 229° |
| 2026-05-05 19:14 | 35.21658 | -13.67562 | 32356 ft | 421 kts | 229° |
| 2026-05-05 19:14 | 35.19659 | -13.70181 | 32228 ft | 422 kts | 229° |
| 2026-05-05 19:15 | 35.17654 | -13.72803 | 32098 ft | 422 kts | 229° |
| 2026-05-05 19:15 | 35.15650 | -13.75420 | 31968 ft | 422 kts | 229° |
| 2026-05-05 19:15 | 35.13640 | -13.78045 | 31840 ft | 422 kts | 229° |
| 2026-05-05 19:15 | 35.11657 | -13.80632 | 31717 ft | 423 kts | 229° |
| 2026-05-05 19:16 | 35.09646 | -13.83254 | 31590 ft | 423 kts | 229° |
| 2026-05-05 19:16 | 35.07633 | -13.85875 | 31470 ft | 424 kts | 229° |
| 2026-05-05 19:16 | 35.05615 | -13.88495 | 31346 ft | 425 kts | 229° |
| 2026-05-05 19:16 | 35.03588 | -13.91123 | 31219 ft | 425 kts | 229° |
| 2026-05-05 19:17 | 35.01561 | -13.93753 | 31084 ft | 426 kts | 229° |
| 2026-05-05 19:17 | 34.99531 | -13.96388 | 30978 ft | 426 kts | 229° |
| 2026-05-05 19:17 | 34.97499 | -13.99027 | 30843 ft | 427 kts | 229° |
| 2026-05-05 19:17 | 34.95467 | -14.01664 | 30725 ft | 427 kts | 229° |
| 2026-05-05 19:18 | 34.93433 | -14.04299 | 30619 ft | 427 kts | 229° |
| 2026-05-05 19:18 | 34.91395 | -14.06939 | 30458 ft | 428 kts | 229° |
| 2026-05-05 19:18 | 34.89354 | -14.09577 | 30346 ft | 428 kts | 229° |
| 2026-05-05 19:18 | 34.87313 | -14.12219 | 30236 ft | 428 kts | 229° |
| 2026-05-05 19:19 | 34.85267 | -14.14866 | 30085 ft | 429 kts | 229° |
| 2026-05-05 19:19 | 34.83221 | -14.17503 | 29950 ft | 429 kts | 228° |
| 2026-05-05 19:19 | 34.81162 | -14.20147 | 29799 ft | 430 kts | 228° |
| 2026-05-05 19:19 | 34.79104 | -14.22786 | 29664 ft | 431 kts | 229° |
| 2026-05-05 19:20 | 34.77040 | -14.25441 | 29525 ft | 432 kts | 229° |
| 2026-05-05 19:20 | 34.74972 | -14.28102 | 29387 ft | 433 kts | 229° |
| 2026-05-05 19:20 | 34.72901 | -14.30766 | 29249 ft | 434 kts | 229° |
| 2026-05-05 19:20 | 34.70857 | -14.33400 | 29115 ft | 434 kts | 229° |
| 2026-05-05 19:21 | 34.68785 | -14.36063 | 28974 ft | 434 kts | 229° |
| 2026-05-05 19:21 | 34.66707 | -14.38730 | 28838 ft | 433 kts | 229° |
| 2026-05-05 19:21 | 34.64611 | -14.41417 | 28701 ft | 433 kts | 229° |
| 2026-05-05 19:21 | 34.62567 | -14.44032 | 28546 ft | 432 kts | 229° |
| 2026-05-05 19:22 | 34.60499 | -14.46670 | 28415 ft | 431 kts | 229° |
| 2026-05-05 19:22 | 34.58434 | -14.49308 | 28281 ft | 430 kts | 229° |
| 2026-05-05 19:22 | 34.56379 | -14.51935 | 28140 ft | 429 kts | 229° |
| 2026-05-05 19:22 | 34.54325 | -14.54561 | 27930 ft | 429 kts | 229° |
| 2026-05-05 19:23 | 34.52280 | -14.57178 | 27632 ft | 427 kts | 229° |
| 2026-05-05 19:23 | 34.50238 | -14.59783 | 27341 ft | 426 kts | 229° |
| 2026-05-05 19:23 | 34.48194 | -14.62383 | 27062 ft | 425 kts | 229° |
| 2026-05-05 19:23 | 34.46160 | -14.64963 | 26784 ft | 423 kts | 229° |
| 2026-05-05 19:24 | 34.44129 | -14.67540 | 26507 ft | 422 kts | 229° |
| 2026-05-05 19:24 | 34.42108 | -14.70106 | 26234 ft | 421 kts | 229° |
| 2026-05-05 19:24 | 34.40091 | -14.72667 | 25963 ft | 419 kts | 229° |
| 2026-05-05 19:24 | 34.38083 | -14.75216 | 25696 ft | 418 kts | 229° |
| 2026-05-05 19:25 | 34.36076 | -14.77760 | 25433 ft | 417 kts | 229° |
| 2026-05-05 19:25 | 34.34082 | -14.80285 | 25156 ft | 415 kts | 229° |
| 2026-05-05 19:25 | 34.32090 | -14.82805 | 24895 ft | 413 kts | 229° |
| 2026-05-05 19:25 | 34.30109 | -14.85314 | 24638 ft | 411 kts | 229° |
| 2026-05-05 19:26 | 34.28164 | -14.87776 | 24384 ft | 410 kts | 229° |
| 2026-05-05 19:26 | 34.26192 | -14.90271 | 24131 ft | 409 kts | 229° |
| 2026-05-05 19:26 | 34.24227 | -14.92752 | 23879 ft | 409 kts | 229° |
| 2026-05-05 19:26 | 34.22260 | -14.95229 | 23609 ft | 408 kts | 229° |
| 2026-05-05 19:27 | 34.20298 | -14.97699 | 23307 ft | 407 kts | 229° |
| 2026-05-05 19:27 | 34.18339 | -15.00161 | 23010 ft | 406 kts | 229° |
| 2026-05-05 19:27 | 34.16388 | -15.02613 | 22717 ft | 404 kts | 229° |
| 2026-05-05 19:27 | 34.14445 | -15.05060 | 22427 ft | 403 kts | 229° |
| 2026-05-05 19:28 | 34.12502 | -15.07504 | 22139 ft | 402 kts | 229° |
| 2026-05-05 19:28 | 34.10567 | -15.09937 | 21854 ft | 401 kts | 229° |
| 2026-05-05 19:28 | 34.08634 | -15.12358 | 21570 ft | 400 kts | 229° |
| 2026-05-05 19:28 | 34.06705 | -15.14766 | 21291 ft | 399 kts | 229° |
| 2026-05-05 19:29 | 34.04784 | -15.17169 | 21014 ft | 398 kts | 229° |
| 2026-05-05 19:29 | 34.02869 | -15.19565 | 20734 ft | 395 kts | 229° |
| 2026-05-05 19:29 | 34.00968 | -15.21941 | 20462 ft | 393 kts | 229° |
| 2026-05-05 19:29 | 33.99077 | -15.24309 | 20194 ft | 391 kts | 229° |
| 2026-05-05 19:30 | 33.97194 | -15.26670 | 19923 ft | 390 kts | 229° |
| 2026-05-05 19:30 | 33.95313 | -15.29025 | 19657 ft | 389 kts | 229° |
| 2026-05-05 19:30 | 33.93484 | -15.31312 | 19404 ft | 388 kts | 229° |
| 2026-05-05 19:30 | 33.91613 | -15.33647 | 19145 ft | 387 kts | 228° |
| 2026-05-05 19:31 | 33.89743 | -15.35975 | 18891 ft | 386 kts | 228° |
| 2026-05-05 19:31 | 33.87878 | -15.38293 | 18639 ft | 385 kts | 228° |
| 2026-05-05 19:31 | 33.86018 | -15.40603 | 18369 ft | 384 kts | 228° |
| 2026-05-05 19:31 | 33.84161 | -15.42912 | 18084 ft | 384 kts | 228° |
| 2026-05-05 19:32 | 33.82307 | -15.45222 | 17792 ft | 383 kts | 228° |
| 2026-05-05 19:32 | 33.80460 | -15.47522 | 17500 ft | 382 kts | 228° |
| 2026-05-05 19:32 | 33.78614 | -15.49820 | 17214 ft | 382 kts | 228° |
| 2026-05-05 19:32 | 33.76766 | -15.52116 | 16933 ft | 381 kts | 228° |
| 2026-05-05 19:33 | 33.74923 | -15.54406 | 16652 ft | 381 kts | 228° |
| 2026-05-05 19:33 | 33.73084 | -15.56687 | 16361 ft | 378 kts | 228° |
| 2026-05-05 19:33 | 33.71262 | -15.58940 | 16087 ft | 375 kts | 228° |
| 2026-05-05 19:33 | 33.69445 | -15.61183 | 15814 ft | 373 kts | 228° |
| 2026-05-05 19:34 | 33.67638 | -15.63414 | 15543 ft | 372 kts | 228° |
| 2026-05-05 19:34 | 33.65861 | -15.65610 | 15277 ft | 373 kts | 228° |
| 2026-05-05 19:34 | 33.64053 | -15.67844 | 15011 ft | 373 kts | 228° |
| 2026-05-05 19:35 | 33.60437 | -15.72301 | 14478 ft | 372 kts | 229° |
| 2026-05-05 19:35 | 33.58638 | -15.74516 | 14218 ft | 371 kts | 228° |
| 2026-05-05 19:35 | 33.56836 | -15.76735 | 13960 ft | 371 kts | 227° |
| 2026-05-05 19:35 | 33.55034 | -15.78952 | 13674 ft | 371 kts | 228° |
| 2026-05-05 19:36 | 33.53211 | -15.81139 | 13389 ft | 371 kts | 227° |
| 2026-05-05 19:36 | 33.51368 | -15.83299 | 13103 ft | 370 kts | 225° |
| 2026-05-05 19:36 | 33.49521 | -15.85437 | 12806 ft | 369 kts | 225° |
| 2026-05-05 19:36 | 33.47677 | -15.87568 | 12531 ft | 369 kts | 226° |
| 2026-05-05 19:37 | 33.45840 | -15.89703 | 12255 ft | 368 kts | 225° |
| 2026-05-05 19:37 | 33.44011 | -15.91836 | 11975 ft | 366 kts | 226° |
| 2026-05-05 19:37 | 33.42192 | -15.93960 | 11694 ft | 362 kts | 226° |
| 2026-05-05 19:37 | 33.40398 | -15.96057 | 11423 ft | 360 kts | 227° |
| 2026-05-05 19:38 | 33.38611 | -15.98144 | 11161 ft | 358 kts | 226° |
| 2026-05-05 19:38 | 33.36829 | -16.00225 | 10882 ft | 358 kts | 226° |
| 2026-05-05 19:38 | 33.35048 | -16.02303 | 10609 ft | 357 kts | 225° |
| 2026-05-05 19:38 | 33.33274 | -16.04374 | 10346 ft | 356 kts | 225° |
| 2026-05-05 19:39 | 33.31506 | -16.06439 | 10095 ft | 354 kts | 225° |
| 2026-05-05 19:39 | 33.29797 | -16.08432 | 9814 ft | 343 kts | 225° |
| 2026-05-05 19:39 | 33.28113 | -16.10391 | 9524 ft | 333 kts | 225° |
| 2026-05-05 19:39 | 33.26479 | -16.12294 | 9238 ft | 324 kts | 225° |
| 2026-05-05 19:40 | 33.24884 | -16.14150 | 8951 ft | 316 kts | 225° |
| 2026-05-05 19:40 | 33.23325 | -16.15962 | 8672 ft | 309 kts | 225° |
| 2026-05-05 19:40 | 33.21802 | -16.17728 | 8394 ft | 302 kts | 225° |
| 2026-05-05 19:40 | 33.20314 | -16.19455 | 8120 ft | 295 kts | 225° |
| 2026-05-05 19:41 | 33.18861 | -16.21143 | 7848 ft | 289 kts | 225° |
| 2026-05-05 19:41 | 33.17433 | -16.22799 | 7579 ft | 284 kts | 225° |
| 2026-05-05 19:41 | 33.16021 | -16.24439 | 7310 ft | 282 kts | 226° |
| 2026-05-05 19:41 | 33.14615 | -16.26067 | 7042 ft | 281 kts | 224° |
| 2026-05-05 19:42 | 33.13213 | -16.27685 | 6781 ft | 280 kts | 225° |
| 2026-05-05 19:42 | 33.11818 | -16.29297 | 6515 ft | 280 kts | 225° |
| 2026-05-05 19:42 | 33.10419 | -16.30915 | 6232 ft | 279 kts | 224° |
| 2026-05-05 19:42 | 33.09051 | -16.32501 | 5962 ft | 278 kts | 224° |
| 2026-05-05 19:43 | 33.07672 | -16.34098 | 5679 ft | 276 kts | 224° |
| 2026-05-05 19:43 | 33.06297 | -16.35689 | 5398 ft | 275 kts | 224° |
| 2026-05-05 19:43 | 33.04922 | -16.37277 | 5115 ft | 275 kts | 224° |
| 2026-05-05 19:43 | 33.03558 | -16.38850 | 4835 ft | 270 kts | 223° |
| 2026-05-05 19:44 | 33.02228 | -16.40383 | 4550 ft | 263 kts | 223° |
| 2026-05-05 19:44 | 33.00931 | -16.41881 | 4264 ft | 257 kts | 223° |
| 2026-05-05 19:44 | 32.99674 | -16.43334 | 4144 ft | 245 kts | 223° |
| 2026-05-05 19:44 | 32.98465 | -16.44730 | 4068 ft | 243 kts | 221° |
| 2026-05-05 19:45 | 32.97248 | -16.46129 | 3996 ft | 243 kts | 222° |
| 2026-05-05 19:45 | 32.96035 | -16.47521 | 3919 ft | 243 kts | 222° |
| 2026-05-05 19:45 | 32.94822 | -16.48912 | 3845 ft | 242 kts | 222° |
| 2026-05-05 19:45 | 32.93616 | -16.50298 | 3765 ft | 243 kts | 221° |
| 2026-05-05 19:46 | 32.92415 | -16.51670 | 3687 ft | 242 kts | 221° |
| 2026-05-05 19:46 | 32.91149 | -16.53051 | 3600 ft | 246 kts | 219° |
| 2026-05-05 19:46 | 32.89898 | -16.54385 | 3500 ft | 242 kts | 220° |
| 2026-05-05 19:46 | 32.88636 | -16.55724 | 3408 ft | 242 kts | 219° |
| 2026-05-05 19:47 | 32.87389 | -16.57061 | 3413 ft | 242 kts | 224° |
| 2026-05-05 19:47 | 32.86319 | -16.58627 | 3416 ft | 246 kts | 236° |
| 2026-05-05 19:47 | 32.85561 | -16.60449 | 3413 ft | 248 kts | 250° |
| 2026-05-05 19:47 | 32.85029 | -16.62398 | 3410 ft | 250 kts | 245° |
| 2026-05-05 19:48 | 32.84148 | -16.64156 | 3344 ft | 247 kts | 229° |
| 2026-05-05 19:48 | 32.82950 | -16.65559 | 3200 ft | 235 kts | 216° |
| 2026-05-05 19:48 | 32.81605 | -16.66550 | 3125 ft | 221 kts | 200° |
| 2026-05-05 19:48 | 32.80268 | -16.67314 | 3065 ft | 206 kts | 201° |
| 2026-05-05 19:49 | 32.79020 | -16.68041 | 2938 ft | 193 kts | 202° |
| 2026-05-05 19:49 | 32.78242 | -16.68497 | 2869 ft | 182 kts | 201° |
| 2026-05-05 19:49 | 32.76824 | -16.69330 | 2791 ft | 164 kts | 202° |
| 2026-05-05 19:49 | 32.75825 | -16.69914 | 2701 ft | 160 kts | 200° |
| 2026-05-05 19:50 | 32.74824 | -16.70494 | 2639 ft | 161 kts | 202° |
| 2026-05-05 19:50 | 32.73805 | -16.71092 | 2453 ft | 165 kts | 203° |
| 2026-05-05 19:50 | 32.72792 | -16.71703 | 2211 ft | 161 kts | 204° |
| 2026-05-05 19:50 | 32.71805 | -16.72298 | 1993 ft | 159 kts | 204° |
| 2026-05-05 19:51 | 32.70814 | -16.72902 | 1786 ft | 160 kts | 205° |
| 2026-05-05 19:51 | 32.69830 | -16.73492 | 1576 ft | 158 kts | 204° |
| 2026-05-05 19:51 | 32.68849 | -16.74089 | 1370 ft | 159 kts | 203° |
| 2026-05-05 19:51 | 32.67832 | -16.74554 | 1164 ft | 156 kts | 195° |
| 2026-05-05 19:52 | 32.66756 | -16.74968 | 1291 ft | 164 kts | 195° |
| 2026-05-05 19:52 | 32.65699 | -16.75372 | 1902 ft | 158 kts | 193° |
| 2026-05-05 19:52 | 32.64647 | -16.75771 | 2352 ft | 160 kts | 193° |
| 2026-05-05 19:52 | 32.63581 | -16.76176 | 2853 ft | 160 kts | 194° |
| 2026-05-05 19:53 | 32.62530 | -16.76577 | 3358 ft | 158 kts | 193° |
| 2026-05-05 19:53 | 32.61471 | -16.76980 | 3774 ft | 161 kts | 194° |
| 2026-05-05 19:53 | 32.60380 | -16.77394 | 3995 ft | 167 kts | 194° |
| 2026-05-05 19:53 | 32.59289 | -16.77811 | 3998 ft | 162 kts | 195° |
| 2026-05-05 19:54 | 32.58220 | -16.78221 | 4008 ft | 161 kts | 195° |
| 2026-05-05 19:54 | 32.57150 | -16.78636 | 4011 ft | 163 kts | 197° |
| 2026-05-05 19:54 | 32.56079 | -16.79047 | 4009 ft | 161 kts | 194° |
| 2026-05-05 19:54 | 32.55005 | -16.79458 | 4007 ft | 164 kts | 194° |
| 2026-05-05 19:55 | 32.53926 | -16.79872 | 4016 ft | 162 kts | 197° |
| 2026-05-05 19:55 | 32.52854 | -16.80282 | 3998 ft | 164 kts | 197° |
| 2026-05-05 19:55 | 32.51768 | -16.80695 | 4015 ft | 163 kts | 196° |
| 2026-05-05 19:55 | 32.50685 | -16.81107 | 3993 ft | 165 kts | 195° |
| 2026-05-05 19:56 | 32.49564 | -16.81345 | 3939 ft | 164 kts | 163° |
| 2026-05-05 19:56 | 32.48780 | -16.80606 | 3781 ft | 137 kts | 99° |
| 2026-05-05 19:56 | 32.49032 | -16.79641 | 3720 ft | 130 kts | 34° |
| 2026-05-05 19:56 | 32.49927 | -16.79416 | 3702 ft | 138 kts | 7° |
| 2026-05-05 19:57 | 32.50887 | -16.79503 | 3616 ft | 140 kts | 349° |
| 2026-05-05 19:57 | 32.51530 | -16.79676 | 3541 ft | 140 kts | 353° |
| 2026-05-05 19:57 | 32.52777 | -16.79920 | 3369 ft | 136 kts | 1° |
| 2026-05-05 19:57 | 32.53711 | -16.80072 | 3225 ft | 134 kts | 1° |
| 2026-05-05 19:58 | 32.54643 | -16.80141 | 3049 ft | 135 kts | 3° |
| 2026-05-05 19:58 | 32.55584 | -16.80182 | 2869 ft | 136 kts | 3° |
| 2026-05-05 19:58 | 32.56528 | -16.80216 | 2699 ft | 136 kts | 3° |
| 2026-05-05 19:58 | 32.57465 | -16.80242 | 2518 ft | 134 kts | 3° |
| 2026-05-05 19:59 | 32.58401 | -16.80263 | 2345 ft | 134 kts | 5° |
| 2026-05-05 19:59 | 32.59329 | -16.80280 | 2164 ft | 133 kts | 5° |
| 2026-05-05 19:59 | 32.60256 | -16.80293 | 1986 ft | 133 kts | 5° |
| 2026-05-05 19:59 | 32.61185 | -16.80303 | 1807 ft | 134 kts | 4° |
| 2026-05-05 20:00 | 32.61804 | -16.80307 | 1685 ft | 135 kts | 6° |
| 2026-05-05 20:00 | 32.63045 | -16.80316 | 1447 ft | 131 kts | 6° |
| 2026-05-05 20:00 | 32.63958 | -16.80321 | 1275 ft | 131 kts | 6° |
| 2026-05-05 20:00 | 32.64564 | -16.80324 | 1148 ft | 133 kts | 7° |
| 2026-05-05 20:01 | 32.65792 | -16.80329 | 921 ft | 133 kts | 3° |
| 2026-05-05 20:01 | 32.66398 | -16.80297 | 804 ft | 129 kts | 10° |
| 2026-05-05 20:01 | 32.67267 | -16.80016 | 633 ft | 131 kts | 23° |
| 2026-05-05 20:01 | 32.68032 | -16.79468 | 468 ft | 131 kts | 37° |
| 2026-05-05 20:02 | 32.68692 | -16.78721 | 293 ft | 133 kts | 39° |
| 2026-05-05 20:02 | 32.69310 | -16.77996 | 181 ft | 114 kts | 40° |
| 2026-05-05 20:02 | 32.69844 | -16.77345 | 442 ft | 117 kts | 42° |
| 2026-05-05 20:02 | 32.70424 | -16.76619 | 1199 ft | 123 kts | 44° |
| 2026-05-05 20:03 | 32.70985 | -16.75802 | 1766 ft | 137 kts | 60° |
| 2026-05-05 20:03 | 32.71493 | -16.74758 | 2042 ft | 154 kts | 58° |
| 2026-05-05 20:03 | 32.72056 | -16.73628 | 2447 ft | 161 kts | 60° |
| 2026-05-05 20:03 | 32.72493 | -16.72406 | 2919 ft | 166 kts | 71° |
| 2026-05-05 20:04 | 32.72731 | -16.70972 | 3167 ft | 190 kts | 84° |
| 2026-05-05 20:04 | 32.72709 | -16.69306 | 3564 ft | 210 kts | 95° |
| 2026-05-05 20:04 | 32.72420 | -16.67569 | 3930 ft | 217 kts | 105° |
| 2026-05-05 20:04 | 32.71856 | -16.65905 | 3996 ft | 216 kts | 115° |
| 2026-05-05 20:05 | 32.71055 | -16.64425 | 4004 ft | 217 kts | 126° |
| 2026-05-05 20:05 | 32.70012 | -16.63112 | 4008 ft | 221 kts | 136° |
| 2026-05-05 20:05 | 32.68737 | -16.62044 | 4488 ft | 228 kts | 147° |
| 2026-05-05 20:05 | 32.67266 | -16.61254 | 5241 ft | 236 kts | 160° |
| 2026-05-05 20:06 | 32.65647 | -16.60812 | 5825 ft | 244 kts | 172° |
| 2026-05-05 20:06 | 32.63965 | -16.60780 | 5849 ft | 241 kts | 185° |
| 2026-05-05 20:06 | 32.62326 | -16.61184 | 5489 ft | 241 kts | 199° |
| 2026-05-05 20:06 | 32.60805 | -16.61992 | 5197 ft | 239 kts | 209° |
| 2026-05-05 20:07 | 32.59466 | -16.63136 | 5021 ft | 235 kts | 223° |
| 2026-05-05 20:07 | 32.58351 | -16.64564 | 5010 ft | 239 kts | 232° |
| 2026-05-05 20:07 | 32.57299 | -16.66114 | 4695 ft | 240 kts | 231° |
| 2026-05-05 20:07 | 32.56247 | -16.67646 | 4390 ft | 238 kts | 230° |
| 2026-05-05 20:08 | 32.55198 | -16.69168 | 4091 ft | 237 kts | 231° |
| 2026-05-05 20:08 | 32.54165 | -16.70666 | 4028 ft | 236 kts | 231° |
| 2026-05-05 20:08 | 32.53113 | -16.72192 | 4026 ft | 241 kts | 232° |
| 2026-05-05 20:08 | 32.52224 | -16.73845 | 4015 ft | 237 kts | 258° |
| 2026-05-05 20:09 | 32.52166 | -16.75767 | 4025 ft | 234 kts | 287° |
| 2026-05-05 20:09 | 32.52635 | -16.77602 | 4023 ft | 234 kts | 283° |
| 2026-05-05 20:09 | 32.52465 | -16.79492 | 4020 ft | 239 kts | 243° |
| 2026-05-05 20:09 | 32.51380 | -16.80974 | 4024 ft | 242 kts | 222° |
| 2026-05-05 20:10 | 32.50384 | -16.82541 | 4013 ft | 237 kts | 256° |
| 2026-05-05 20:10 | 32.50398 | -16.84427 | 4021 ft | 230 kts | 295° |
| 2026-05-05 20:10 | 32.51372 | -16.85798 | 3901 ft | 215 kts | 338° |
| 2026-05-05 20:10 | 32.52711 | -16.85992 | 3782 ft | 184 kts | 23° |
| 2026-05-05 20:11 | 32.53645 | -16.85126 | 3627 ft | 166 kts | 47° |
| 2026-05-05 20:11 | 32.54408 | -16.84144 | 3405 ft | 156 kts | 45° |
| 2026-05-05 20:11 | 32.55134 | -16.83278 | 3167 ft | 142 kts | 45° |
| 2026-05-05 20:11 | 32.55815 | -16.82465 | 2912 ft | 136 kts | 46° |
| 2026-05-05 20:12 | 32.56468 | -16.81685 | 2659 ft | 130 kts | 46° |
| 2026-05-05 20:12 | 32.57091 | -16.80943 | 2399 ft | 125 kts | 44° |
| 2026-05-05 20:12 | 32.57823 | -16.80434 | 2165 ft | 122 kts | 19° |
| 2026-05-05 20:12 | 32.58677 | -16.80340 | 2076 ft | 126 kts | 6° |
| 2026-05-05 20:13 | 32.59558 | -16.80341 | 2055 ft | 127 kts | 6° |
| 2026-05-05 20:13 | 32.60444 | -16.80342 | 2053 ft | 127 kts | 5° |
| 2026-05-05 20:13 | 32.61333 | -16.80339 | 1970 ft | 131 kts | 7° |
| 2026-05-05 20:13 | 32.62234 | -16.80327 | 1692 ft | 127 kts | 4° |
| 2026-05-05 20:14 | 32.63121 | -16.80387 | 1400 ft | 128 kts | 2° |
| 2026-05-05 20:14 | 32.63998 | -16.80527 | 1167 ft | 128 kts | 359° |
| 2026-05-05 20:14 | 32.64893 | -16.80663 | 999 ft | 131 kts | 2° |
| 2026-05-05 20:14 | 32.65763 | -16.80691 | 924 ft | 123 kts | 9° |
| 2026-05-05 20:15 | 32.66601 | -16.80504 | 908 ft | 124 kts | 20° |
| 2026-05-05 20:15 | 32.67377 | -16.80100 | 909 ft | 125 kts | 29° |
| 2026-05-05 20:15 | 32.68060 | -16.79456 | 538 ft | 126 kts | 45° |
| 2026-05-05 20:15 | 32.68670 | -16.78751 | 337 ft | 124 kts | 41° |
| 2026-05-05 20:16 | 32.69260 | -16.78062 | 179 ft | 108 kts | 43° |
| 2026-05-05 20:16 | 32.69636 | -16.77625 | 176 ft | 36 kts | 46° |
| 2026-05-05 20:16 | 32.69753 | -16.77487 | 176 ft | 22 kts | 44° |
| 2026-05-05 20:16 | 32.69853 | -16.77371 | 176 ft | 19 kts | 44° |
| 2026-05-05 20:17 | 32.69944 | -16.77264 | 176 ft | 17 kts | 47° |
| 2026-05-05 20:17 | 32.69920 | -16.77173 | 176 ft | 12 kts | 180° |
| 2026-05-05 20:17 | 32.69848 | -16.77182 | 176 ft | 9 kts | 191° |
| 2026-05-05 20:17 | 32.69781 | -16.77249 | 176 ft | 18 kts | 226° |
| 2026-05-05 20:18 | 32.69704 | -16.77345 | 176 ft | 14 kts | 226° |
| 2026-05-05 20:18 | 32.69647 | -16.77416 | 176 ft | 9 kts | 226° |
| 2026-05-05 20:18 | 32.69614 | -16.77456 | 176 ft | 5 kts | 226° |
| 2026-05-05 20:18 | 32.69580 | -16.77498 | 176 ft | 7 kts | 226° |
| 2026-05-05 20:19 | 32.69551 | -16.77535 | 176 ft | 8 kts | 226° |
| 2026-05-05 20:19 | 32.69509 | -16.77587 | 176 ft | 7 kts | 227° |
| 2026-05-05 20:19 | 32.69476 | -16.77629 | 176 ft | 8 kts | 226° |
| 2026-05-05 20:19 | 32.69447 | -16.77665 | 176 ft | 6 kts | 225° |
| 2026-05-05 20:20 | 32.69411 | -16.77709 | 176 ft | 6 kts | 226° |
| 2026-05-05 20:20 | 32.69392 | -16.77733 | 176 ft | 2 kts | 226° |
| 2026-05-05 20:20 | 32.69383 | -16.77740 | 176 ft | 0 kts | 207° |
| 2026-05-05 20:20 | 32.69378 | -16.77739 | 176 ft | 3 kts | 181° |
| 2026-05-05 20:21 | 32.69365 | -16.77730 | 176 ft | 1 kts | 139° |
| 2026-05-05 20:21 | 32.69361 | -16.77726 | 176 ft | 2 kts | 139° |
| 2026-05-05 20:21 | 32.69346 | -16.77710 | 176 ft | 0 kts | 139° |
| 2026-05-05 20:21 | 32.69337 | -16.77701 | 176 ft | 2 kts | 139° |
| 2026-05-05 20:22 | 32.69335 | -16.77699 | 176 ft | 0 kts | 138° |